createdAt,value
2023-05-23T00:00:04.817Z,95610.53
2023-05-23T00:02:49.934Z,95609.38
2023-05-23T00:05:35.058Z,95601.03
2023-05-23T00:08:20.422Z,95598.78
2023-05-23T00:11:05.893Z,95602.91
2023-05-23T00:13:51.384Z,95604.94
2023-05-23T00:16:41.341Z,95595.22
2023-05-23T00:19:26.846Z,95594.84
2023-05-23T00:22:12.481Z,95591.59
2023-05-23T00:24:57.919Z,95594.66
2023-05-23T00:27:43.342Z,95600.56
2023-05-23T00:30:33.326Z,95599.41
2023-05-23T00:33:22.267Z,95594.50
2023-05-23T00:36:07.579Z,95592.88
2023-05-23T00:38:53.322Z,95587.81
2023-05-23T00:41:38.577Z,95593.31
2023-05-23T00:44:24.044Z,95595.78
2023-05-23T00:47:09.411Z,95590.91
2023-05-23T00:49:54.982Z,95595.00
2023-05-23T00:52:40.919Z,95599.06
2023-05-23T00:55:26.309Z,95585.47
2023-05-23T00:58:13.214Z,95585.66
2023-05-23T01:00:59.966Z,95586.09
2023-05-23T01:03:45.773Z,95583.06
2023-05-23T01:06:33.389Z,95580.84
2023-05-23T01:09:19.186Z,95585.53
2023-05-23T01:12:40.002Z,95581.66
2023-05-23T01:16:03.598Z,95579.22
2023-05-23T01:19:13.664Z,95582.09
2023-05-23T01:22:06.511Z,95578.22
2023-05-23T01:24:57.781Z,95581.50
2023-05-23T01:27:48.940Z,95573.19
2023-05-23T01:30:39.748Z,95578.66
2023-05-23T01:33:25.735Z,95583.34
2023-05-23T01:36:13.758Z,95585.38
2023-05-23T01:38:59.265Z,95578.91
2023-05-23T01:41:44.918Z,95582.97
2023-05-23T01:44:30.759Z,95563.69
2023-05-23T01:47:16.708Z,95569.16
2023-05-23T01:50:03.049Z,95567.53
2023-05-23T01:52:48.980Z,95566.94
2023-05-23T01:55:34.921Z,95558.38
2023-05-23T01:58:20.673Z,95562.28
2023-05-23T02:01:06.100Z,95560.25
2023-05-23T02:03:51.784Z,95560.66
2023-05-23T02:06:37.088Z,95559.47
2023-05-23T02:09:22.464Z,95555.59
2023-05-23T02:12:07.903Z,95553.16
2023-05-23T02:14:55.269Z,95556.22
2023-05-23T02:17:41.591Z,95550.53
2023-05-23T02:20:27.009Z,95553.56
2023-05-23T02:23:12.511Z,95555.38
2023-05-23T02:25:57.795Z,95555.59
2023-05-23T02:28:43.020Z,95553.97
2023-05-23T02:31:29.116Z,95546.25
2023-05-23T02:34:14.322Z,95542.19
2023-05-23T02:36:59.606Z,95542.59
2023-05-23T02:39:44.875Z,95547.28
2023-05-23T02:42:30.275Z,95548.28
2023-05-23T02:45:15.581Z,95544.03
2023-05-23T02:48:01.031Z,95541.19
2023-05-23T02:50:46.140Z,95539.56
2023-05-23T02:53:31.929Z,95540.38
2023-05-23T02:56:17.080Z,95543.44
2023-05-23T02:59:02.467Z,95538.34
2023-05-23T03:01:47.701Z,95538.56
2023-05-23T03:04:33.674Z,95539.56
2023-05-23T03:07:27.469Z,95545.88
2023-05-23T03:10:13.354Z,95546.91
2023-05-23T03:12:58.548Z,95542.63
2023-05-23T03:15:44.005Z,95541.63
2023-05-23T03:18:29.416Z,95536.72
2023-05-23T03:21:14.750Z,95540.16
2023-05-23T03:24:00.062Z,95538.16
2023-05-23T03:26:45.337Z,95545.66
2023-05-23T03:29:30.857Z,95538.34
2023-05-23T03:32:16.128Z,95537.13
2023-05-23T03:35:01.556Z,95534.06
2023-05-23T03:37:47.404Z,95531.84
2023-05-23T03:40:32.723Z,95535.09
2023-05-23T03:43:18.041Z,95532.06
2023-05-23T03:46:03.609Z,95532.03
2023-05-23T03:48:49.357Z,95535.28
2023-05-23T03:51:34.852Z,95527.56
2023-05-23T03:54:20.127Z,95530.59
2023-05-23T03:57:05.692Z,95523.28
2023-05-23T03:59:51.334Z,95527.72
2023-05-23T04:02:36.711Z,95525.25
2023-05-23T04:05:21.819Z,95517.31
2023-05-23T04:08:08.229Z,95522.56
2023-05-23T04:10:53.649Z,95524.81
2023-05-23T04:13:38.824Z,95525.78
2023-05-23T04:16:24.612Z,95516.59
2023-05-23T04:19:10.003Z,95517.81
2023-05-23T04:21:55.343Z,95515.75
2023-05-23T04:24:40.903Z,95515.69
2023-05-23T04:27:26.136Z,95514.84
2023-05-23T04:30:11.746Z,95507.91
2023-05-23T04:32:58.346Z,95515.78
2023-05-23T04:35:43.941Z,95509.84
2023-05-23T04:38:29.653Z,95500.03
2023-05-23T04:41:16.409Z,95495.94
2023-05-23T04:44:02.109Z,95510.97
2023-05-23T04:46:47.452Z,95494.22
2023-05-23T04:49:34.376Z,95500.28
2023-05-23T04:52:20.253Z,95496.78
2023-05-23T04:55:06.607Z,95501.84
2023-05-23T04:57:51.824Z,95488.41
2023-05-23T05:00:37.596Z,95488.16
2023-05-23T05:03:25.088Z,95486.59
2023-05-23T05:06:10.346Z,95489.38
2023-05-23T05:08:55.439Z,95484.22
2023-05-23T05:11:40.963Z,95482.34
2023-05-23T05:14:27.657Z,95478.97
2023-05-23T05:17:13.004Z,95479.28
2023-05-23T05:19:58.530Z,95481.22
2023-05-23T05:22:43.900Z,95482.28
2023-05-23T05:25:32.228Z,95482.19
2023-05-23T05:28:17.550Z,95471.53
2023-05-23T05:31:05.313Z,95479.19
2023-05-23T05:33:50.676Z,95478.88
2023-05-23T05:36:35.798Z,95481.81
2023-05-23T05:39:21.129Z,95476.41
2023-05-23T05:42:06.698Z,95468.94
2023-05-23T05:44:51.958Z,95473.13
2023-05-23T05:47:38.888Z,95482.97
2023-05-23T05:50:24.656Z,95471.81
2023-05-23T05:53:09.622Z,95468.25
2023-05-23T05:55:55.096Z,95472.44
2023-05-23T05:58:40.450Z,95465.19
2023-05-23T06:01:26.886Z,95454.59
2023-05-23T06:04:12.533Z,95457.72
2023-05-23T06:06:57.578Z,95461.78
2023-05-23T06:09:43.513Z,95464.66
2023-05-23T06:12:28.884Z,95460.72
2023-05-23T06:15:14.830Z,95451.81
2023-05-23T06:18:00.143Z,95451.22
2023-05-23T06:20:45.226Z,95453.53
2023-05-23T06:23:30.523Z,95455.34
2023-05-23T06:26:15.931Z,95452.41
2023-05-23T06:29:01.228Z,95454.00
2023-05-23T06:31:46.673Z,95450.72
2023-05-23T06:34:31.769Z,95451.25
2023-05-23T06:37:18.022Z,95440.28
2023-05-23T06:40:03.405Z,95436.72
2023-05-23T06:42:48.513Z,95434.63
2023-05-23T06:45:35.935Z,95430.78
2023-05-23T06:48:21.013Z,95435.53
2023-05-23T06:51:06.515Z,95431.00
2023-05-23T06:53:51.772Z,95422.34
2023-05-23T06:56:37.004Z,95423.63
2023-05-23T06:59:22.467Z,95415.28
2023-05-23T07:02:07.688Z,95426.97
2023-05-23T07:04:52.971Z,95418.41
2023-05-23T07:07:38.241Z,95411.00
2023-05-23T07:10:23.767Z,95412.72
2023-05-23T07:13:09.425Z,95408.72
2023-05-23T07:15:55.992Z,95409.41
2023-05-23T07:18:41.272Z,95406.38
2023-05-23T07:21:26.656Z,95403.31
2023-05-23T07:24:12.095Z,95403.34
2023-05-23T07:26:57.481Z,95398.59
2023-05-23T07:29:42.818Z,95404.13
2023-05-23T07:32:27.991Z,95401.81
2023-05-23T07:35:14.058Z,95407.53
2023-05-23T07:37:59.622Z,95402.84
2023-05-23T07:40:48.269Z,95401.09
2023-05-23T07:43:42.106Z,95404.38
2023-05-23T07:46:27.595Z,95397.75
2023-05-23T07:49:12.914Z,95401.78
2023-05-23T07:51:58.555Z,95407.44
2023-05-23T07:54:43.739Z,95398.31
2023-05-23T07:57:29.315Z,95393.50
2023-05-23T08:00:15.017Z,95403.13
2023-05-23T08:03:00.181Z,95395.06
2023-05-23T08:05:45.300Z,95390.22
2023-05-23T08:08:30.819Z,95378.16
2023-05-23T08:11:16.697Z,95380.53
2023-05-23T08:14:02.141Z,95383.19
2023-05-23T08:16:47.498Z,95373.34
2023-05-23T08:19:32.810Z,95373.78
2023-05-23T08:22:17.990Z,95369.94
2023-05-23T08:25:03.406Z,95376.75
2023-05-23T08:27:48.709Z,95369.69
2023-05-23T08:30:33.976Z,95364.81
2023-05-23T08:33:19.151Z,95370.13
2023-05-23T08:36:04.589Z,95368.31
2023-05-23T08:38:51.268Z,95370.44
2023-05-23T08:41:36.841Z,95368.00
2023-05-23T08:44:22.129Z,95364.75
2023-05-23T08:47:09.074Z,95362.47
2023-05-23T08:49:56.625Z,95368.72
2023-05-23T08:52:58.883Z,95362.25
2023-05-23T08:55:44.027Z,95365.34
2023-05-23T08:58:34.407Z,95363.25
2023-05-23T09:01:20.702Z,95362.19
2023-05-23T09:04:07.161Z,95358.13
2023-05-23T09:06:54.238Z,95355.13
2023-05-23T09:09:39.680Z,95352.59
2023-05-23T09:12:25.424Z,95350.88
2023-05-23T09:15:11.449Z,95348.72
2023-05-23T09:18:02.044Z,95351.88
2023-05-23T09:20:48.455Z,95348.00
2023-05-23T09:23:35.011Z,95351.66
2023-05-23T09:26:20.072Z,95355.34
2023-05-23T09:29:06.418Z,95356.81
2023-05-23T09:31:51.750Z,95359.28
2023-05-23T09:34:41.066Z,95355.91
2023-05-23T09:37:34.511Z,95364.16
2023-05-23T09:40:20.166Z,95359.94
2023-05-23T09:43:07.643Z,95354.53
2023-05-23T09:45:54.252Z,95353.03
2023-05-23T09:48:39.609Z,95358.25
2023-05-23T09:51:24.849Z,95364.44
2023-05-23T09:54:10.151Z,95352.63
2023-05-23T09:57:01.424Z,95349.81
2023-05-23T09:59:54.411Z,95348.72
2023-05-23T10:03:15.107Z,95354.09
2023-05-23T10:06:02.359Z,95359.88
2023-05-23T10:08:57.424Z,95359.06
2023-05-23T10:12:21.239Z,95366.91
2023-05-23T10:15:09.758Z,95362.03
2023-05-23T10:18:07.996Z,95350.97
2023-05-23T10:20:57.731Z,95356.34
2023-05-23T10:23:44.679Z,95349.38
2023-05-23T10:26:30.657Z,95349.75
2023-05-23T10:29:15.984Z,95351.88
2023-05-23T10:32:05.709Z,95357.06
2023-05-23T10:35:08.344Z,95361.41
2023-05-23T10:38:01.150Z,95363.31
2023-05-23T10:41:05.825Z,95378.16
2023-05-23T10:44:05.517Z,95384.13
2023-05-23T10:47:01.357Z,95380.75
2023-05-23T10:49:51.602Z,95366.19
2023-05-23T10:52:41.316Z,95364.53
2023-05-23T10:55:28.282Z,95369.44
2023-05-23T10:58:20.560Z,95371.69
2023-05-23T11:01:08.520Z,95371.44
2023-05-23T11:03:55.538Z,95365.53
2023-05-23T11:06:44.361Z,95374.19
2023-05-23T11:09:29.551Z,95355.41
2023-05-23T11:12:15.047Z,95355.97
2023-05-23T11:15:00.389Z,95359.09
2023-05-23T11:17:56.942Z,95358.66
2023-05-23T11:20:45.224Z,95352.41
2023-05-23T11:23:42.525Z,95342.47
2023-05-23T11:26:32.098Z,95345.44
2023-05-23T11:29:17.660Z,95337.34
2023-05-23T11:32:16.063Z,95336.38
2023-05-23T11:35:08.403Z,95339.16
2023-05-23T11:37:56.864Z,95337.44
2023-05-23T11:40:44.721Z,95337.78
2023-05-23T11:43:30.410Z,95337.66
2023-05-23T11:46:15.961Z,95344.53
2023-05-23T11:49:01.493Z,95343.63
2023-05-23T11:51:46.509Z,95333.06
2023-05-23T11:54:32.082Z,95328.84
2023-05-23T11:57:17.208Z,95326.78
2023-05-23T12:00:04.027Z,95333.66
2023-05-23T12:02:49.312Z,95331.25
2023-05-23T12:05:34.916Z,95327.75
2023-05-23T12:08:20.016Z,95315.84
2023-05-23T12:11:06.322Z,95321.59
2023-05-23T12:13:53.115Z,95300.69
2023-05-23T12:16:38.498Z,95304.59
2023-05-23T12:19:24.874Z,95302.41
2023-05-23T12:22:10.296Z,95308.25
2023-05-23T12:24:58.582Z,95310.84
2023-05-23T12:27:44.343Z,95310.25
2023-05-23T12:30:29.375Z,95305.88
2023-05-23T12:33:14.706Z,95306.31
2023-05-23T12:36:00.161Z,95297.91
2023-05-23T12:38:45.854Z,95305.88
2023-05-23T12:41:35.716Z,95303.88
2023-05-23T12:44:21.112Z,95299.22
2023-05-23T12:47:06.666Z,95295.63
2023-05-23T12:49:51.958Z,95298.31
2023-05-23T12:52:37.910Z,95286.22
2023-05-23T12:55:23.230Z,95287.03
2023-05-23T12:58:08.455Z,95285.25
2023-05-23T13:00:53.950Z,95285.25
2023-05-23T13:03:39.145Z,95283.94
2023-05-23T13:06:24.473Z,95280.72
2023-05-23T13:09:10.298Z,95276.53
2023-05-23T13:11:55.251Z,95279.03
2023-05-23T13:14:41.607Z,95275.94
2023-05-23T13:17:26.537Z,95275.44
2023-05-23T13:20:12.224Z,95276.03
2023-05-23T13:22:58.272Z,95273.03
2023-05-23T13:25:43.985Z,95270.03
2023-05-23T13:28:29.353Z,95274.44
2023-05-23T13:31:14.652Z,95274.84
2023-05-23T13:33:59.976Z,95262.41
2023-05-23T13:36:45.433Z,95263.22
2023-05-23T13:39:30.714Z,95254.41
2023-05-23T13:42:16.142Z,95246.72
2023-05-23T13:45:01.402Z,95254.31
2023-05-23T13:47:47.407Z,95250.25
2023-05-23T13:50:32.664Z,95250.53
2023-05-23T13:53:17.826Z,95255.63
2023-05-23T13:56:03.452Z,95255.63
2023-05-23T13:58:48.562Z,95259.22
2023-05-23T14:01:33.946Z,95268.53
2023-05-23T14:04:19.595Z,95263.44
2023-05-23T14:07:04.720Z,95270.72
2023-05-23T14:09:50.497Z,95268.63
2023-05-23T14:12:35.819Z,95271.84
2023-05-23T14:15:21.410Z,95267.91
2023-05-23T14:18:06.905Z,95273.81
2023-05-23T14:20:52.310Z,95286.28
2023-05-23T14:23:37.482Z,95294.97
2023-05-23T14:26:23.485Z,95296.50
2023-05-23T14:29:08.840Z,95295.91
2023-05-23T14:31:54.177Z,95302.91
2023-05-23T14:34:39.558Z,95310.22
2023-05-23T14:37:24.842Z,95315.19
2023-05-23T14:40:10.532Z,95317.97
2023-05-23T14:42:55.766Z,95316.50
2023-05-23T14:45:41.377Z,95325.78
2023-05-23T14:48:27.065Z,95331.28
2023-05-23T14:51:20.694Z,95339.19
2023-05-23T14:54:12.556Z,95349.75
2023-05-23T14:56:57.911Z,95356.06
2023-05-23T14:59:43.601Z,95359.13
2023-05-23T15:02:28.735Z,95360.50
2023-05-23T15:05:15.408Z,95365.72
2023-05-23T15:08:01.395Z,95368.03
2023-05-23T15:10:47.141Z,95365.25
2023-05-23T15:13:32.425Z,95363.47
2023-05-23T15:16:18.135Z,95366.09
2023-05-23T15:19:05.063Z,95384.31
2023-05-23T15:21:51.724Z,95387.63
2023-05-23T15:24:43.555Z,95390.09
2023-05-23T15:27:29.153Z,95403.31
2023-05-23T15:30:14.382Z,95411.97
2023-05-23T15:33:01.528Z,95400.06
2023-05-23T15:35:47.627Z,95390.94
2023-05-23T15:38:32.961Z,95385.84
2023-05-23T15:41:18.449Z,95381.84
2023-05-23T15:44:03.416Z,95373.00
2023-05-23T15:46:51.078Z,95372.84
2023-05-23T15:49:36.602Z,95383.13
2023-05-23T15:52:21.557Z,95376.16
2023-05-23T15:55:07.488Z,95383.44
2023-05-23T15:57:53.040Z,95375.09
2023-05-23T16:00:38.248Z,95382.09
2023-05-23T16:03:23.941Z,95374.59
2023-05-23T16:06:09.129Z,95374.06
2023-05-23T16:08:54.811Z,95380.00
2023-05-23T16:11:40.048Z,95380.00
2023-05-23T16:14:25.736Z,95378.13
2023-05-23T16:17:11.122Z,95374.63
2023-05-23T16:19:56.207Z,95364.44
2023-05-23T16:22:41.724Z,95364.47
2023-05-23T16:25:27.088Z,95366.09
2023-05-23T16:28:12.365Z,95362.31
2023-05-23T16:30:57.526Z,95355.38
2023-05-23T16:33:43.424Z,95353.75
2023-05-23T16:36:28.878Z,95348.91
2023-05-23T16:39:14.487Z,95355.41
2023-05-23T16:42:00.670Z,95353.25
2023-05-23T16:44:46.433Z,95346.00
2023-05-23T16:47:31.943Z,95350.03
2023-05-23T16:50:17.491Z,95340.09
2023-05-23T16:53:02.837Z,95337.94
2023-05-23T16:55:47.899Z,95327.47
2023-05-23T16:58:36.060Z,95320.03
2023-05-23T17:01:21.857Z,95334.50
2023-05-23T17:04:07.195Z,95351.66
2023-05-23T17:06:52.316Z,95341.47
2023-05-23T17:09:37.623Z,95333.69
2023-05-23T17:12:23.287Z,95339.88
2023-05-23T17:15:09.126Z,95336.13
2023-05-23T17:17:55.476Z,95336.13
2023-05-23T17:20:40.914Z,95333.47
2023-05-23T17:23:26.603Z,95332.34
2023-05-23T17:26:12.298Z,95325.91
2023-05-23T17:28:57.270Z,95330.75
2023-05-23T17:31:43.490Z,95328.34
2023-05-23T17:34:28.808Z,95325.91
2023-05-23T17:37:15.261Z,95317.31
2023-05-23T17:40:01.904Z,95314.41
2023-05-23T17:42:47.253Z,95317.88
2023-05-23T17:45:32.504Z,95322.44
2023-05-23T17:48:18.098Z,95323.75
2023-05-23T17:51:03.373Z,95326.72
2023-05-23T17:53:51.715Z,95321.34
2023-05-23T17:56:37.491Z,95332.88
2023-05-23T17:59:23.187Z,95337.72
2023-05-23T18:02:10.009Z,95339.31
2023-05-23T18:04:55.303Z,95338.25
2023-05-23T18:07:40.917Z,95340.13
2023-05-23T18:10:26.767Z,95343.34
2023-05-23T18:13:11.764Z,95338.75
2023-05-23T18:15:57.229Z,95347.88
2023-05-23T18:18:42.402Z,95340.94
2023-05-23T18:21:28.855Z,95342.25
2023-05-23T18:24:14.212Z,95352.69
2023-05-23T18:26:59.265Z,95348.94
2023-05-23T18:29:44.738Z,95346.78
2023-05-23T18:32:30.516Z,95353.22
2023-05-23T18:35:16.100Z,95358.00
2023-05-23T18:38:01.602Z,95363.09
2023-05-23T18:40:46.928Z,95365.50
2023-05-23T18:43:32.218Z,95369.78
2023-05-23T18:46:17.392Z,95372.69
2023-05-23T18:49:03.033Z,95375.06
2023-05-23T18:51:48.396Z,95381.22
2023-05-23T18:54:33.513Z,95380.16
2023-05-23T18:57:20.493Z,95382.56
2023-05-23T19:00:06.612Z,95384.13
2023-05-23T19:02:52.315Z,95386.25
2023-05-23T19:05:37.956Z,95388.38
2023-05-23T19:08:23.268Z,95388.91
2023-05-23T19:11:10.755Z,95396.09
2023-05-23T19:13:56.150Z,95392.06
2023-05-23T19:16:41.556Z,95387.75
2023-05-23T19:19:29.301Z,95401.41
2023-05-23T19:22:16.185Z,95392.56
2023-05-23T19:25:01.681Z,95398.16
2023-05-23T19:27:46.725Z,95394.16
2023-05-23T19:30:32.137Z,95400.81
2023-05-23T19:33:18.512Z,95400.03
2023-05-23T19:36:05.337Z,95394.66
2023-05-23T19:38:51.921Z,95391.69
2023-05-23T19:41:37.228Z,95394.63
2023-05-23T19:44:22.582Z,95390.31
2023-05-23T19:47:07.947Z,95391.38
2023-05-23T19:49:53.285Z,95398.03
2023-05-23T19:52:39.723Z,95395.63
2023-05-23T19:55:25.064Z,95401.25
2023-05-23T19:58:10.450Z,95407.66
2023-05-23T20:00:56.048Z,95401.50
2023-05-23T20:03:41.100Z,95404.69
2023-05-23T20:06:26.885Z,95406.81
2023-05-23T20:09:12.319Z,95408.94
2023-05-23T20:11:57.560Z,95403.84
2023-05-23T20:14:42.980Z,95402.25
2023-05-23T20:17:29.281Z,95403.56
2023-05-23T20:20:14.770Z,95412.66
2023-05-23T20:23:00.069Z,95408.09
2023-05-23T20:25:45.549Z,95414.78
2023-05-23T20:28:31.437Z,95420.13
2023-05-23T20:31:17.389Z,95419.56
2023-05-23T20:34:02.693Z,95424.38
2023-05-23T20:36:48.081Z,95428.13
2023-05-23T20:39:33.173Z,95424.06
2023-05-23T20:42:19.174Z,95424.31
2023-05-23T20:45:07.106Z,95431.78
2023-05-23T20:47:53.633Z,95432.06
2023-05-23T20:50:39.308Z,95423.25
2023-05-23T20:53:24.739Z,95427.22
2023-05-23T20:56:12.829Z,95429.34
2023-05-23T20:59:00.298Z,95430.16
2023-05-23T21:01:45.873Z,95429.59
2023-05-23T21:04:31.182Z,95441.81
2023-05-23T21:07:16.754Z,95447.16
2023-05-23T21:10:02.614Z,95442.88
2023-05-23T21:12:50.192Z,95452.75
2023-05-23T21:15:35.652Z,95445.28
2023-05-23T21:18:22.585Z,95448.25
2023-05-23T21:21:08.158Z,95450.38
2023-05-23T21:23:53.366Z,95449.31
2023-05-23T21:26:38.591Z,95446.59
2023-05-23T21:29:24.003Z,95447.09
2023-05-23T21:32:09.267Z,95455.38
2023-05-23T21:34:54.693Z,95461.44
2023-05-23T21:37:39.735Z,95451.50
2023-05-23T21:40:26.835Z,95457.66
2023-05-23T21:43:12.316Z,95465.47
2023-05-23T21:45:57.570Z,95461.25
2023-05-23T21:48:42.892Z,95451.94
2023-05-23T21:51:28.145Z,95454.09
2023-05-23T21:54:13.442Z,95447.09
2023-05-23T21:56:59.100Z,95451.94
2023-05-23T21:59:44.179Z,95453.28
2023-05-23T22:02:29.682Z,95448.75
2023-05-23T22:05:15.327Z,95449.81
2023-05-23T22:08:00.634Z,95442.63
2023-05-23T22:10:45.930Z,95444.00
2023-05-23T22:13:31.274Z,95449.34
2023-05-23T22:16:16.834Z,95444.78
2023-05-23T22:19:02.238Z,95442.38
2023-05-23T22:21:48.041Z,95448.78
2023-05-23T22:24:36.942Z,95442.88
2023-05-23T22:27:22.081Z,95436.72
2023-05-23T22:30:08.637Z,95427.91
2023-05-23T22:32:53.862Z,95432.19
2023-05-23T22:35:40.754Z,95435.94
2023-05-23T22:38:26.149Z,95435.13
2023-05-23T22:41:11.687Z,95424.69
2023-05-23T22:46:42.856Z,95435.06
2023-05-23T22:49:30.239Z,95430.00
2023-05-23T22:52:16.608Z,95433.72
2023-05-23T22:55:02.092Z,95432.09
2023-05-23T22:57:47.477Z,95432.09
2023-05-23T23:00:32.882Z,95433.72
2023-05-23T23:03:18.333Z,95433.19
2023-05-23T23:06:06.288Z,95433.19
2023-05-23T23:08:52.856Z,95433.41
2023-05-23T23:11:38.308Z,95428.06
2023-05-23T23:14:23.660Z,95431.53
2023-05-23T23:17:10.060Z,95432.06
2023-05-23T23:19:55.721Z,95434.72
2023-05-23T23:22:41.148Z,95436.34
2023-05-23T23:25:26.955Z,95430.44
2023-05-23T23:28:12.423Z,95432.00
2023-05-23T23:30:57.541Z,95429.34
2023-05-23T23:33:42.864Z,95422.16
2023-05-23T23:36:28.139Z,95421.84
2023-05-23T23:39:13.268Z,95431.06
2023-05-23T23:41:58.520Z,95429.47
2023-05-23T23:44:43.842Z,95427.34
2023-05-23T23:47:29.322Z,95422.00
2023-05-23T23:50:14.438Z,95429.47
2023-05-23T23:52:59.700Z,95430.97
2023-05-23T23:55:45.359Z,95436.88
2023-05-23T23:58:31.512Z,95437.19
